createdAt,value
2019-02-12T00:00:24.101Z,0.00
2019-02-12T00:01:24.044Z,0.00
2019-02-12T00:02:24.023Z,0.00
2019-02-12T00:03:24.014Z,0.00
2019-02-12T00:04:24.004Z,0.00
2019-02-12T00:05:23.992Z,0.00
2019-02-12T00:06:23.981Z,0.00
2019-02-12T00:07:24.007Z,0.00
2019-02-12T00:08:23.962Z,0.00
2019-02-12T00:09:23.953Z,0.00
2019-02-12T00:10:23.941Z,0.00
2019-02-12T00:11:23.940Z,0.00
2019-02-12T00:12:23.921Z,0.00
2019-02-12T00:13:23.927Z,0.00
2019-02-12T00:14:23.898Z,0.00
2019-02-12T00:15:23.888Z,0.00
2019-02-12T00:16:23.879Z,0.00
2019-02-12T00:17:23.870Z,0.00
2019-02-12T00:18:23.862Z,0.00
2019-02-12T00:19:23.856Z,0.00
2019-02-12T00:20:23.838Z,0.00
2019-02-12T00:21:23.830Z,0.00
2019-02-12T00:22:23.816Z,0.00
2019-02-12T00:23:23.806Z,0.00
2019-02-12T00:24:23.797Z,0.00
2019-02-12T00:25:23.812Z,0.00
2019-02-12T00:26:23.777Z,0.00
2019-02-12T00:27:23.764Z,0.00
2019-02-12T00:28:23.754Z,0.00
2019-02-12T00:29:23.745Z,0.00
2019-02-12T00:30:23.736Z,0.00
2019-02-12T00:31:23.743Z,0.00
2019-02-12T00:32:23.713Z,0.00
2019-02-12T00:33:23.703Z,0.00
2019-02-12T00:34:23.693Z,0.00
2019-02-12T00:35:23.681Z,0.00
2019-02-12T00:36:23.673Z,0.00
2019-02-12T00:37:23.679Z,0.00
2019-02-12T00:38:23.652Z,0.00
2019-02-12T00:39:23.640Z,0.00
2019-02-12T00:40:23.627Z,0.00
2019-02-12T00:41:23.621Z,0.00
2019-02-12T00:42:23.610Z,0.00
2019-02-12T00:43:23.617Z,0.00
2019-02-12T00:44:23.588Z,0.00
2019-02-12T00:45:23.579Z,0.00
2019-02-12T00:46:23.569Z,0.00
2019-02-12T00:47:23.559Z,0.00
2019-02-12T00:48:23.554Z,0.00
2019-02-12T00:49:23.556Z,0.00
2019-02-12T00:50:23.543Z,0.00
2019-02-12T00:51:23.518Z,0.00
2019-02-12T00:52:23.508Z,0.00
2019-02-12T00:53:23.505Z,0.00
2019-02-12T00:54:24.180Z,0.00
2019-02-12T00:55:23.493Z,0.00
2019-02-12T00:56:23.467Z,0.00
2019-02-12T00:57:23.457Z,0.00
2019-02-12T00:58:23.458Z,0.00
2019-02-12T00:59:23.435Z,0.00
2019-02-12T01:00:23.431Z,0.00
2019-02-12T01:01:23.431Z,0.00
2019-02-12T01:02:23.403Z,0.00
2019-02-12T01:03:23.394Z,0.00
2019-02-12T01:04:23.384Z,0.00
2019-02-12T01:05:23.377Z,0.00
2019-02-12T01:06:23.364Z,0.00
2019-02-12T01:07:23.371Z,0.00
2019-02-12T01:08:23.343Z,0.00
2019-02-12T01:09:23.343Z,0.00
2019-02-12T01:10:23.323Z,0.00
2019-02-12T01:11:23.310Z,0.00
2019-02-12T01:12:23.301Z,0.00
2019-02-12T01:13:23.313Z,0.00
2019-02-12T01:14:23.281Z,0.00
2019-02-12T01:15:23.274Z,0.00
2019-02-12T01:16:23.259Z,0.00
2019-02-12T01:17:23.246Z,0.00
2019-02-12T01:18:23.237Z,0.00
2019-02-12T01:19:23.244Z,0.00
2019-02-12T01:20:23.218Z,0.00
2019-02-12T01:21:26.160Z,0.00
2019-02-12T01:22:23.201Z,0.00
2019-02-12T01:23:23.192Z,0.00
2019-02-12T01:24:23.177Z,0.00
2019-02-12T01:25:23.180Z,0.00
2019-02-12T01:26:23.157Z,0.00
2019-02-12T01:27:23.150Z,0.00
2019-02-12T01:28:23.135Z,0.00
2019-02-12T01:29:23.128Z,0.00
2019-02-12T01:30:23.116Z,0.00
2019-02-12T01:31:23.138Z,0.00
2019-02-12T01:32:23.119Z,0.00
2019-02-12T01:33:23.084Z,0.00
2019-02-12T01:34:23.104Z,0.00
2019-02-12T01:35:23.067Z,0.00
2019-02-12T01:36:23.052Z,0.00
2019-02-12T01:37:23.062Z,0.00
2019-02-12T01:38:23.033Z,0.00
2019-02-12T01:39:23.026Z,0.00
2019-02-12T01:40:23.012Z,0.00
2019-02-12T01:41:23.003Z,0.00
2019-02-12T01:42:22.992Z,0.00
2019-02-12T01:43:22.996Z,0.00
2019-02-12T01:44:22.969Z,0.00
2019-02-12T01:45:22.969Z,0.00
2019-02-12T01:46:22.955Z,0.00
2019-02-12T01:47:22.941Z,0.00
2019-02-12T01:48:22.938Z,0.00
2019-02-12T01:49:23.651Z,0.00
2019-02-12T01:50:22.912Z,0.00
2019-02-12T01:51:22.899Z,0.00
2019-02-12T01:52:22.890Z,0.00
2019-02-12T01:53:22.890Z,0.00
2019-02-12T01:54:22.870Z,0.00
2019-02-12T01:55:22.887Z,0.00
2019-02-12T01:56:22.851Z,0.00
2019-02-12T01:57:22.836Z,0.00
2019-02-12T01:58:22.835Z,0.00
2019-02-12T01:59:22.815Z,0.00
2019-02-12T02:00:22.811Z,0.00
2019-02-12T02:01:22.836Z,0.00
2019-02-12T02:02:22.783Z,0.00
2019-02-12T02:03:22.776Z,0.00
2019-02-12T02:04:22.761Z,0.00
2019-02-12T02:05:22.751Z,0.00
2019-02-12T02:06:22.744Z,0.00
2019-02-12T02:07:22.757Z,0.00
2019-02-12T02:08:22.719Z,0.00
2019-02-12T02:09:22.712Z,0.00
2019-02-12T02:10:22.703Z,0.00
2019-02-12T02:11:22.697Z,0.00
2019-02-12T02:12:22.683Z,0.00
2019-02-12T02:13:22.688Z,0.00
2019-02-12T02:14:22.664Z,0.00
2019-02-12T02:15:22.665Z,0.00
2019-02-12T02:16:22.639Z,0.00
2019-02-12T02:17:22.629Z,0.00
2019-02-12T02:18:22.624Z,0.00
2019-02-12T02:19:22.651Z,0.00
2019-02-12T02:20:22.602Z,0.00
2019-02-12T02:21:22.592Z,0.00
2019-02-12T02:22:22.583Z,0.00
2019-02-12T02:23:22.567Z,0.00
2019-02-12T02:24:22.563Z,0.00
2019-02-12T02:25:22.585Z,0.00
2019-02-12T02:26:22.544Z,0.00
2019-02-12T02:27:22.531Z,0.00
2019-02-12T02:28:22.518Z,0.00
2019-02-12T02:29:22.514Z,0.00
2019-02-12T02:30:22.504Z,0.00
2019-02-12T02:31:22.499Z,0.00
2019-02-12T02:32:22.483Z,0.00
2019-02-12T02:33:22.472Z,0.00
2019-02-12T02:34:22.458Z,0.00
2019-02-12T02:35:22.445Z,0.00
2019-02-12T02:36:22.485Z,0.00
2019-02-12T02:37:22.603Z,0.00
2019-02-12T02:38:22.415Z,0.00
2019-02-12T02:39:22.406Z,0.00
2019-02-12T02:40:22.400Z,0.00
2019-02-12T02:41:22.382Z,0.00
2019-02-12T02:42:22.375Z,0.00
2019-02-12T02:43:22.392Z,0.00
2019-02-12T02:44:22.357Z,0.00
2019-02-12T02:45:22.343Z,0.00
2019-02-12T02:46:22.330Z,0.00
2019-02-12T02:47:22.324Z,0.00
2019-02-12T02:48:22.310Z,0.00
2019-02-12T02:49:22.412Z,0.00
2019-02-12T02:50:22.290Z,0.00
2019-02-12T02:51:22.288Z,0.00
2019-02-12T02:52:22.270Z,0.00
2019-02-12T02:53:22.258Z,0.00
2019-02-12T02:54:22.248Z,0.00
2019-02-12T02:55:22.252Z,0.00
2019-02-12T02:56:22.229Z,0.00
2019-02-12T02:57:22.238Z,0.00
2019-02-12T02:58:22.209Z,0.00
2019-02-12T02:59:22.193Z,0.00
2019-02-12T03:00:22.185Z,0.00
2019-02-12T03:01:22.190Z,0.00
2019-02-12T03:02:22.167Z,0.00
2019-02-12T03:03:22.156Z,0.00
2019-02-12T03:04:22.143Z,0.00
2019-02-12T03:05:22.133Z,0.00
2019-02-12T03:06:22.127Z,0.00
2019-02-12T03:07:22.138Z,0.00
2019-02-12T03:08:22.107Z,0.00
2019-02-12T03:09:22.097Z,0.00
2019-02-12T03:10:22.086Z,0.00
2019-02-12T03:11:22.071Z,0.00
2019-02-12T03:12:22.076Z,0.00
2019-02-12T03:13:22.068Z,0.00
2019-02-12T03:14:22.040Z,0.00
2019-02-12T03:15:22.030Z,0.00
2019-02-12T03:16:22.019Z,0.00
2019-02-12T03:17:22.013Z,0.00
2019-02-12T03:18:22.003Z,0.00
2019-02-12T03:19:22.003Z,0.00
2019-02-12T03:20:21.978Z,0.00
2019-02-12T03:21:21.970Z,0.00
2019-02-12T03:22:21.960Z,0.00
2019-02-12T03:23:21.945Z,0.00
2019-02-12T03:24:21.937Z,0.00
2019-02-12T03:25:21.946Z,0.00
2019-02-12T03:26:21.920Z,0.00
2019-02-12T03:27:21.905Z,0.00
2019-02-12T03:28:21.894Z,0.00
2019-02-12T03:29:21.885Z,0.00
2019-02-12T03:30:21.877Z,0.00
2019-02-12T03:31:21.883Z,0.00
2019-02-12T03:32:21.851Z,0.00
2019-02-12T03:33:21.848Z,0.00
2019-02-12T03:34:21.834Z,0.00
2019-02-12T03:35:21.821Z,0.00
2019-02-12T03:36:21.812Z,0.00
2019-02-12T03:37:21.836Z,0.00
2019-02-12T03:38:21.789Z,0.00
2019-02-12T03:39:21.779Z,0.00
2019-02-12T03:40:21.776Z,0.00
2019-02-12T03:41:21.760Z,0.00
2019-02-12T03:42:21.748Z,0.00
2019-02-12T03:43:21.773Z,0.00
2019-02-12T03:44:21.725Z,0.00
2019-02-12T03:45:21.719Z,0.00
2019-02-12T03:46:21.705Z,0.00
2019-02-12T03:47:21.697Z,0.00
2019-02-12T03:48:21.687Z,0.00
2019-02-12T03:49:21.690Z,0.00
2019-02-12T03:50:21.673Z,0.00
2019-02-12T03:51:21.668Z,0.00
2019-02-12T03:52:21.649Z,0.00
2019-02-12T03:53:21.635Z,0.00
2019-02-12T03:54:21.624Z,0.00
2019-02-12T03:55:21.636Z,0.00
2019-02-12T03:56:21.602Z,0.00
2019-02-12T03:57:21.592Z,0.00
2019-02-12T03:58:21.588Z,0.00
2019-02-12T03:59:21.573Z,0.00
2019-02-12T04:00:21.560Z,0.00
2019-02-12T04:01:21.566Z,0.00
2019-02-12T04:02:21.544Z,0.00
2019-02-12T04:03:21.528Z,0.00
2019-02-12T04:04:21.518Z,0.00
2019-02-12T04:05:21.508Z,0.00
2019-02-12T04:06:21.501Z,0.00
2019-02-12T04:07:21.592Z,0.00
2019-02-12T04:08:21.476Z,0.00
2019-02-12T04:09:21.470Z,0.00
2019-02-12T04:10:21.454Z,0.00
2019-02-12T04:11:21.444Z,0.00
2019-02-12T04:12:21.436Z,0.00
2019-02-12T04:13:21.445Z,0.00
2019-02-12T04:14:21.414Z,0.00
2019-02-12T04:15:21.404Z,0.00
2019-02-12T04:16:21.394Z,0.00
2019-02-12T04:17:21.385Z,0.00
2019-02-12T04:18:21.376Z,0.00
2019-02-12T04:19:21.378Z,0.00
2019-02-12T04:20:21.354Z,0.00
2019-02-12T04:21:21.349Z,0.00
2019-02-12T04:22:23.004Z,0.00
2019-02-12T04:23:21.320Z,0.00
2019-02-12T04:24:21.313Z,0.00
2019-02-12T04:25:21.314Z,0.00
2019-02-12T04:26:21.292Z,0.00
2019-02-12T04:27:21.279Z,0.00
2019-02-12T04:28:21.269Z,0.00
2019-02-12T04:29:21.261Z,0.00
2019-02-12T04:30:21.250Z,0.00
2019-02-12T04:31:21.269Z,0.00
2019-02-12T04:32:21.235Z,0.00
2019-02-12T04:33:21.231Z,0.00
2019-02-12T04:34:21.205Z,0.00
2019-02-12T04:35:21.195Z,0.00
2019-02-12T04:36:21.193Z,0.00
2019-02-12T04:37:21.193Z,0.00
2019-02-12T04:38:21.160Z,0.00
2019-02-12T04:39:21.155Z,0.00
2019-02-12T04:40:21.145Z,0.00
2019-02-12T04:41:21.136Z,0.00
2019-02-12T04:42:21.141Z,0.00
2019-02-12T04:43:21.137Z,0.00
2019-02-12T04:44:21.102Z,0.00
2019-02-12T04:45:21.093Z,0.00
2019-02-12T04:46:21.080Z,0.00
2019-02-12T04:47:21.071Z,0.00
2019-02-12T04:48:21.063Z,0.00
2019-02-12T04:49:21.064Z,0.00
2019-02-12T04:50:21.049Z,0.00
2019-02-12T04:51:21.042Z,0.00
2019-02-12T04:52:21.043Z,0.00
2019-02-12T04:53:21.016Z,0.00
2019-02-12T04:54:21.004Z,0.00
2019-02-12T04:55:21.014Z,0.00
2019-02-12T04:56:20.980Z,0.00
2019-02-12T04:57:20.969Z,0.00
2019-02-12T04:58:20.962Z,0.00
2019-02-12T04:59:20.948Z,0.00
2019-02-12T05:00:20.940Z,0.00
2019-02-12T05:01:20.947Z,0.00
2019-02-12T05:02:20.922Z,0.00
2019-02-12T05:03:20.912Z,0.00
2019-02-12T05:04:20.895Z,0.00
2019-02-12T05:05:20.896Z,0.00
2019-02-12T05:06:20.886Z,0.00
2019-02-12T05:07:20.879Z,0.00
2019-02-12T05:08:20.858Z,0.00
2019-02-12T05:09:20.843Z,0.00
2019-02-12T05:10:20.834Z,0.00
2019-02-12T05:11:20.824Z,0.00
2019-02-12T05:12:20.816Z,0.00
2019-02-12T05:13:20.837Z,0.00
2019-02-12T05:14:20.851Z,0.00
2019-02-12T05:15:20.781Z,0.00
2019-02-12T05:16:20.771Z,0.00
2019-02-12T05:17:20.765Z,0.00
2019-02-12T05:18:20.749Z,0.00
2019-02-12T05:19:20.755Z,0.00
2019-02-12T05:20:20.730Z,0.00
2019-02-12T05:21:20.721Z,0.00
2019-02-12T05:22:20.708Z,0.00
2019-02-12T05:23:20.699Z,0.00
2019-02-12T05:24:20.689Z,0.00
2019-02-12T05:25:20.691Z,0.00
2019-02-12T05:26:20.666Z,0.00
2019-02-12T05:27:20.659Z,0.00
2019-02-12T05:28:20.656Z,0.00
2019-02-12T05:29:20.637Z,0.00
2019-02-12T05:30:20.626Z,0.00
2019-02-12T05:31:20.628Z,0.00
2019-02-12T05:32:20.620Z,0.00
2019-02-12T05:33:20.594Z,0.00
2019-02-12T05:34:20.583Z,0.00
2019-02-12T05:35:20.573Z,0.00
2019-02-12T05:36:20.562Z,0.00
2019-02-12T05:37:20.577Z,0.00
2019-02-12T05:38:20.572Z,0.00
2019-02-12T05:39:20.536Z,0.00
2019-02-12T05:40:20.519Z,0.00
2019-02-12T05:41:20.511Z,0.00
2019-02-12T05:42:20.502Z,0.00
2019-02-12T05:43:20.503Z,0.00
2019-02-12T05:44:20.478Z,0.00
2019-02-12T05:45:20.468Z,0.00
2019-02-12T05:46:20.459Z,0.00
2019-02-12T05:47:20.505Z,0.00
2019-02-12T05:48:20.439Z,0.00
2019-02-12T05:49:20.439Z,0.00
2019-02-12T05:50:20.423Z,0.00
2019-02-12T05:51:20.406Z,0.00
2019-02-12T05:53:13.203Z,0.00
2019-02-12T05:54:13.195Z,0.00
2019-02-12T05:55:13.217Z,0.00
2019-02-12T05:56:13.190Z,0.00
2019-02-12T05:57:13.165Z,0.00
2019-02-12T05:58:13.167Z,0.00
2019-02-12T05:59:13.178Z,0.00
2019-02-12T06:00:13.146Z,0.00
2019-02-12T06:01:13.152Z,0.00
2019-02-12T06:02:13.180Z,0.00
2019-02-12T06:03:13.104Z,0.00
2019-02-12T06:04:13.100Z,0.00
2019-02-12T06:05:13.778Z,0.00
2019-02-12T06:06:13.086Z,0.00
2019-02-12T06:07:13.072Z,0.00
2019-02-12T06:08:13.177Z,0.00
2019-02-12T06:09:13.059Z,0.00
2019-02-12T06:10:13.037Z,0.00
2019-02-12T06:11:13.036Z,0.00
2019-02-12T06:12:13.022Z,0.00
2019-02-12T06:13:13.021Z,0.00
2019-02-12T06:14:12.980Z,0.00
2019-02-12T06:15:12.981Z,0.00
2019-02-12T06:16:12.964Z,0.00
2019-02-12T06:17:12.958Z,0.00
2019-02-12T06:18:12.958Z,0.00
2019-02-12T06:19:12.961Z,0.00
2019-02-12T06:20:12.936Z,0.00
2019-02-12T06:21:12.924Z,0.00
2019-02-12T06:22:12.903Z,0.00
2019-02-12T06:23:12.921Z,0.00
2019-02-12T06:24:12.881Z,0.00
2019-02-12T06:25:12.925Z,0.00
2019-02-12T06:26:12.861Z,0.00
2019-02-12T06:27:12.860Z,0.00
2019-02-12T06:28:12.842Z,0.00
2019-02-12T06:29:12.849Z,0.00
2019-02-12T06:30:12.822Z,5.62
2019-02-12T06:31:12.829Z,5.62
2019-02-12T06:32:12.800Z,5.62
2019-02-12T06:33:12.794Z,5.62
2019-02-12T06:34:12.777Z,5.62
2019-02-12T06:35:12.771Z,5.62
2019-02-12T06:36:12.768Z,11.25
2019-02-12T06:37:12.770Z,11.25
2019-02-12T06:38:12.744Z,11.25
2019-02-12T06:39:12.729Z,16.88
2019-02-12T06:40:12.722Z,16.88
2019-02-12T06:41:12.710Z,16.88
2019-02-12T06:42:12.698Z,22.50
2019-02-12T06:43:12.711Z,22.50
2019-02-12T06:44:12.682Z,22.50
2019-02-12T06:45:12.669Z,28.12
2019-02-12T06:46:12.656Z,28.12
2019-02-12T06:47:12.649Z,33.75
2019-02-12T06:48:12.637Z,33.75
2019-02-12T06:49:12.641Z,33.75
2019-02-12T06:50:12.683Z,39.38
2019-02-12T06:51:12.605Z,39.38
2019-02-12T06:52:12.603Z,39.38
2019-02-12T06:53:12.971Z,39.38
2019-02-12T06:54:12.568Z,45.00
2019-02-12T06:55:12.579Z,45.00
2019-02-12T06:56:12.552Z,45.00
2019-02-12T06:57:12.552Z,50.62
2019-02-12T06:58:12.530Z,50.62
2019-02-12T06:59:12.517Z,50.62
2019-02-12T07:00:12.521Z,56.25
2019-02-12T07:01:12.517Z,61.88
2019-02-12T07:02:12.492Z,61.88
2019-02-12T07:03:12.491Z,67.50
2019-02-12T07:04:12.475Z,67.50
2019-02-12T07:05:12.467Z,73.12
2019-02-12T07:06:12.451Z,78.75
2019-02-12T07:07:12.447Z,78.75
2019-02-12T07:08:12.426Z,84.38
2019-02-12T07:09:12.418Z,84.38
2019-02-12T07:10:12.403Z,90.00
2019-02-12T07:11:12.421Z,90.00
2019-02-12T07:12:12.379Z,90.00
2019-02-12T07:13:12.393Z,90.00
2019-02-12T07:14:12.370Z,95.62
2019-02-12T07:15:12.360Z,101.25
2019-02-12T07:16:12.338Z,101.25
2019-02-12T07:17:12.328Z,118.12
2019-02-12T07:18:12.324Z,180.00
2019-02-12T07:19:12.325Z,286.88
2019-02-12T07:20:12.314Z,371.25
2019-02-12T07:21:12.292Z,365.62
2019-02-12T07:22:12.279Z,360.00
2019-02-12T07:23:21.019Z,405.00
2019-02-12T07:24:13.287Z,489.38
2019-02-12T07:25:12.247Z,551.25
2019-02-12T07:26:12.235Z,562.50
2019-02-12T07:27:12.232Z,573.75
2019-02-12T07:28:12.213Z,573.75
2019-02-12T07:29:12.206Z,568.12
2019-02-12T07:30:12.209Z,573.75
2019-02-12T07:31:12.183Z,590.62
2019-02-12T07:32:12.174Z,596.25
2019-02-12T07:33:13.587Z,607.50
2019-02-12T07:34:12.152Z,596.25
2019-02-12T07:35:12.148Z,596.25
2019-02-12T07:36:12.157Z,607.50
2019-02-12T07:37:12.121Z,601.88
2019-02-12T07:38:12.129Z,573.75
2019-02-12T07:39:12.097Z,545.62
2019-02-12T07:40:12.088Z,528.75
2019-02-12T07:41:19.909Z,534.38
2019-02-12T07:42:13.086Z,551.25
2019-02-12T07:43:12.057Z,585.00
2019-02-12T07:44:12.043Z,618.75
2019-02-12T07:45:12.036Z,641.25
2019-02-12T07:46:12.026Z,624.38
2019-02-12T07:47:12.021Z,590.62
2019-02-12T07:48:12.055Z,489.38
2019-02-12T07:49:11.993Z,461.25
2019-02-12T07:50:11.983Z,444.38
2019-02-12T07:51:11.976Z,416.25
2019-02-12T07:52:11.964Z,433.12
2019-02-12T07:53:11.951Z,393.75
2019-02-12T07:54:11.964Z,388.12
2019-02-12T07:55:11.929Z,388.12
2019-02-12T07:56:11.919Z,382.50
2019-02-12T07:57:11.916Z,365.62
2019-02-12T07:58:11.904Z,343.12
2019-02-12T07:59:11.894Z,360.00
2019-02-12T08:00:11.911Z,360.00
2019-02-12T08:01:11.871Z,354.38
2019-02-12T08:02:11.870Z,354.38
2019-02-12T08:03:11.849Z,348.75
2019-02-12T08:04:11.846Z,348.75
2019-02-12T08:05:11.823Z,343.12
2019-02-12T08:06:11.833Z,348.75
2019-02-12T08:07:11.801Z,371.25
2019-02-12T08:08:11.793Z,382.50
2019-02-12T08:09:11.782Z,376.88
2019-02-12T08:10:11.777Z,376.88
2019-02-12T08:11:11.762Z,388.12
2019-02-12T08:12:11.768Z,410.62
2019-02-12T08:13:11.738Z,427.50
2019-02-12T08:14:11.728Z,388.12
2019-02-12T08:15:11.722Z,382.50
2019-02-12T08:16:11.709Z,371.25
2019-02-12T08:17:11.696Z,371.25
2019-02-12T08:18:11.699Z,376.88
2019-02-12T08:19:11.679Z,399.38
2019-02-12T08:20:11.664Z,393.75
2019-02-12T08:21:11.660Z,399.38
2019-02-12T08:22:14.058Z,405.00
2019-02-12T08:23:11.646Z,388.12
2019-02-12T08:24:11.643Z,421.88
2019-02-12T08:25:11.617Z,405.00
2019-02-12T08:26:11.609Z,427.50
2019-02-12T08:27:11.592Z,478.12
2019-02-12T08:28:11.588Z,489.38
2019-02-12T08:29:11.572Z,523.12
2019-02-12T08:30:11.578Z,630.00
2019-02-12T08:31:11.552Z,585.00
2019-02-12T08:32:11.549Z,517.50
2019-02-12T08:33:11.529Z,478.12
2019-02-12T08:34:11.517Z,540.00
2019-02-12T08:35:11.519Z,579.38
2019-02-12T08:36:11.517Z,646.88
2019-02-12T08:37:11.488Z,635.62
2019-02-12T08:38:11.479Z,641.25
2019-02-12T08:39:11.468Z,618.75
2019-02-12T08:40:11.456Z,556.88
2019-02-12T08:41:11.449Z,500.62
2019-02-12T08:42:11.450Z,455.62
2019-02-12T08:43:11.424Z,472.50
2019-02-12T08:44:11.415Z,472.50
2019-02-12T08:45:11.408Z,500.62
2019-02-12T08:46:11.405Z,483.75
2019-02-12T08:47:11.383Z,483.75
2019-02-12T08:48:11.386Z,478.12
2019-02-12T08:49:11.362Z,478.12
2019-02-12T08:50:11.354Z,483.75
2019-02-12T08:51:11.341Z,500.62
2019-02-12T08:52:11.335Z,523.12
2019-02-12T08:53:11.318Z,534.38
2019-02-12T08:54:11.339Z,523.12
2019-02-12T08:55:11.303Z,528.75
2019-02-12T08:56:11.293Z,551.25
2019-02-12T08:57:11.277Z,545.62
2019-02-12T08:58:11.272Z,540.00
2019-02-12T08:59:11.262Z,461.25
2019-02-12T09:00:11.257Z,416.25
2019-02-12T09:01:11.241Z,438.75
2019-02-12T09:02:11.236Z,444.38
2019-02-12T09:03:11.225Z,421.88
2019-02-12T09:04:11.201Z,410.62
2019-02-12T09:05:11.197Z,405.00
2019-02-12T09:06:11.195Z,410.62
2019-02-12T09:07:11.173Z,410.62
2019-02-12T09:08:11.159Z,410.62
2019-02-12T09:09:11.157Z,455.62
2019-02-12T09:10:11.140Z,517.50
2019-02-12T09:11:11.131Z,585.00
2019-02-12T09:12:11.138Z,585.00
2019-02-12T09:13:11.105Z,579.38
2019-02-12T09:14:11.095Z,568.12
2019-02-12T09:15:11.085Z,590.62
2019-02-12T09:16:11.095Z,613.12
2019-02-12T09:17:11.073Z,630.00
2019-02-12T09:18:11.089Z,646.88
2019-02-12T09:19:11.058Z,658.12
2019-02-12T09:20:11.034Z,680.62
2019-02-12T09:21:11.025Z,703.12
2019-02-12T09:22:11.013Z,725.62
2019-02-12T09:23:11.003Z,725.62
2019-02-12T09:24:11.011Z,697.50
2019-02-12T09:25:10.984Z,680.62
2019-02-12T09:26:10.971Z,686.25
2019-02-12T09:27:10.978Z,658.12
2019-02-12T09:28:10.949Z,646.88
2019-02-12T09:29:10.943Z,624.38
2019-02-12T09:30:10.957Z,613.12
2019-02-12T09:31:10.914Z,596.25
2019-02-12T09:32:10.913Z,590.62
2019-02-12T09:33:10.898Z,596.25
2019-02-12T09:34:10.885Z,618.75
2019-02-12T09:35:10.876Z,624.38
2019-02-12T09:36:10.885Z,624.38
2019-02-12T09:37:10.854Z,635.62
2019-02-12T09:38:10.847Z,618.75
2019-02-12T09:39:10.836Z,596.25
2019-02-12T09:40:18.849Z,551.25
2019-02-12T09:41:11.835Z,517.50
2019-02-12T09:42:10.800Z,528.75
2019-02-12T09:43:10.796Z,545.62
2019-02-12T09:44:10.781Z,562.50
2019-02-12T09:45:10.768Z,556.88
2019-02-12T09:46:10.760Z,528.75
2019-02-12T09:47:10.766Z,517.50
2019-02-12T09:48:10.748Z,534.38
2019-02-12T09:49:10.729Z,573.75
2019-02-12T09:50:10.749Z,618.75
2019-02-12T09:51:10.755Z,630.00
2019-02-12T09:52:10.695Z,585.00
2019-02-12T09:53:10.697Z,511.88
2019-02-12T09:54:10.682Z,500.62
2019-02-12T09:55:10.663Z,534.38
2019-02-12T09:56:10.656Z,568.12
2019-02-12T09:57:10.644Z,556.88
2019-02-12T09:58:10.639Z,585.00
2019-02-12T09:59:10.634Z,669.38
2019-02-12T10:00:10.613Z,787.50
2019-02-12T10:01:10.600Z,838.12
2019-02-12T10:02:10.588Z,843.75
2019-02-12T10:03:10.632Z,804.38
2019-02-12T10:04:10.565Z,776.25
2019-02-12T10:05:10.571Z,770.62
2019-02-12T10:06:10.555Z,787.50
2019-02-12T10:07:10.530Z,787.50
2019-02-12T10:08:10.536Z,793.12
2019-02-12T10:09:10.518Z,821.25
2019-02-12T10:10:10.504Z,838.12
2019-02-12T10:11:10.508Z,860.62
2019-02-12T10:12:10.479Z,877.50
2019-02-12T10:13:10.472Z,1147.50
2019-02-12T10:14:10.463Z,1237.50
2019-02-12T10:15:10.450Z,1417.50
2019-02-12T10:16:10.441Z,1434.38
2019-02-12T10:17:10.446Z,2013.75
2019-02-12T10:18:10.419Z,2553.75
2019-02-12T10:19:10.409Z,2160.00
2019-02-12T10:20:10.397Z,2098.12
2019-02-12T10:21:10.386Z,2559.38
2019-02-12T10:22:10.372Z,1856.25
2019-02-12T10:23:10.401Z,1333.12
2019-02-12T10:24:19.273Z,1530.00
2019-02-12T10:25:11.343Z,2008.12
2019-02-12T10:26:10.333Z,2480.62
2019-02-12T10:27:10.321Z,1800.00
2019-02-12T10:28:10.314Z,1518.75
2019-02-12T10:29:10.318Z,2047.50
2019-02-12T10:30:10.304Z,1693.12
2019-02-12T10:31:10.282Z,1811.25
2019-02-12T10:32:10.269Z,1816.88
2019-02-12T10:33:10.259Z,1726.88
2019-02-12T10:34:10.260Z,1631.25
2019-02-12T10:35:10.253Z,1648.12
2019-02-12T10:36:10.231Z,1620.00
2019-02-12T10:37:10.214Z,1670.62
2019-02-12T10:39:10.195Z,1715.62
2019-02-12T10:40:10.182Z,1704.38
2019-02-12T10:41:10.188Z,1620.00
2019-02-12T10:42:10.162Z,1586.25
2019-02-12T10:43:10.153Z,1518.75
2019-02-12T10:44:10.141Z,1501.88
2019-02-12T10:45:10.131Z,1479.38
2019-02-12T10:46:10.121Z,1451.25
2019-02-12T10:47:10.122Z,1434.38
2019-02-12T10:48:10.095Z,1428.75
2019-02-12T10:49:10.089Z,1434.38
2019-02-12T10:50:10.076Z,1462.50
2019-02-12T10:51:10.063Z,1451.25
2019-02-12T10:52:10.062Z,1423.12
2019-02-12T10:53:10.061Z,1366.88
2019-02-12T10:54:12.174Z,1282.50
2019-02-12T10:55:10.025Z,1276.88
2019-02-12T10:56:10.015Z,1316.25
2019-02-12T10:57:10.010Z,1344.38
2019-02-12T10:58:09.994Z,1321.88
2019-02-12T10:59:10.001Z,1321.88
2019-02-12T11:00:09.974Z,1305.00
2019-02-12T11:01:09.965Z,1305.00
2019-02-12T11:02:09.951Z,1338.75
2019-02-12T11:03:09.941Z,1423.12
2019-02-12T11:04:09.931Z,1501.88
2019-02-12T11:05:09.935Z,1563.75
2019-02-12T11:06:09.910Z,1603.12
2019-02-12T11:07:09.903Z,1676.25
2019-02-12T11:08:09.891Z,1783.12
2019-02-12T11:09:09.877Z,1867.50
2019-02-12T11:10:09.868Z,1974.38
2019-02-12T11:11:09.874Z,2025.00
2019-02-12T11:12:09.845Z,2081.25
2019-02-12T11:13:09.835Z,2205.00
2019-02-12T11:14:09.839Z,1704.38
2019-02-12T11:15:09.835Z,1541.25
2019-02-12T11:16:09.803Z,1434.38
2019-02-12T11:17:09.810Z,1428.75
2019-02-12T11:18:09.785Z,1456.88
2019-02-12T11:19:09.774Z,1518.75
2019-02-12T11:20:09.759Z,1563.75
2019-02-12T11:21:12.108Z,1794.38
2019-02-12T11:22:09.741Z,2165.62
2019-02-12T11:23:10.951Z,2283.75
2019-02-12T11:24:09.717Z,2300.62
2019-02-12T11:25:09.706Z,2272.50
2019-02-12T11:26:09.694Z,2317.50
2019-02-12T11:27:09.685Z,2109.38
2019-02-12T11:28:09.672Z,2452.50
2019-02-12T11:29:09.678Z,2216.25
2019-02-12T11:30:09.653Z,2266.88
2019-02-12T11:31:09.637Z,2154.38
2019-02-12T11:32:09.630Z,2300.62
2019-02-12T11:33:09.626Z,2081.25
2019-02-12T11:34:09.605Z,2025.00
2019-02-12T11:35:09.613Z,1957.50
2019-02-12T11:36:09.591Z,1839.38
2019-02-12T11:37:09.575Z,1743.75
2019-02-12T11:38:09.565Z,1676.25
2019-02-12T11:39:09.558Z,1625.62
2019-02-12T11:40:09.542Z,1631.25
2019-02-12T11:41:09.562Z,1828.12
2019-02-12T11:42:09.524Z,1878.75
2019-02-12T11:43:09.510Z,1800.00
2019-02-12T11:44:09.500Z,1608.75
2019-02-12T11:45:09.489Z,1541.25
2019-02-12T11:46:09.478Z,1411.88
2019-02-12T11:47:09.482Z,1411.88
2019-02-12T11:48:09.456Z,1366.88
2019-02-12T11:49:09.444Z,1305.00
2019-02-12T11:50:09.434Z,1237.50
2019-02-12T11:51:09.427Z,1265.62
2019-02-12T11:52:09.414Z,1237.50
2019-02-12T11:53:09.418Z,1203.75
2019-02-12T11:54:09.389Z,1203.75
2019-02-12T11:55:16.417Z,1192.50
2019-02-12T11:56:09.370Z,1175.62
2019-02-12T11:57:09.364Z,1243.12
2019-02-12T11:58:09.348Z,1406.25
2019-02-12T11:59:09.351Z,1518.75
2019-02-12T12:00:09.325Z,1417.50
2019-02-12T12:01:09.319Z,1400.62
2019-02-12T12:02:09.306Z,1321.88
2019-02-12T12:03:09.293Z,1209.38
2019-02-12T12:04:09.284Z,1186.88
2019-02-12T12:05:09.290Z,1074.38
2019-02-12T12:06:09.267Z,1125.00
2019-02-12T12:07:09.259Z,1096.88
2019-02-12T12:08:09.244Z,1085.62
2019-02-12T12:09:09.229Z,1051.88
2019-02-12T12:10:09.220Z,1035.00
2019-02-12T12:11:09.226Z,995.62
2019-02-12T12:12:09.202Z,961.88
2019-02-12T12:13:09.198Z,916.88
2019-02-12T12:14:09.178Z,877.50
2019-02-12T12:15:09.169Z,883.12
2019-02-12T12:16:09.159Z,883.12
2019-02-12T12:17:09.168Z,843.75
2019-02-12T12:18:09.139Z,838.12
2019-02-12T12:19:09.127Z,843.75
2019-02-12T12:20:09.126Z,866.25
2019-02-12T12:21:09.105Z,877.50
2019-02-12T12:22:09.096Z,894.38
2019-02-12T12:23:09.098Z,922.50
2019-02-12T12:24:09.073Z,967.50
2019-02-12T12:25:09.063Z,1023.75
2019-02-12T12:26:09.053Z,990.00
2019-02-12T12:27:09.047Z,995.62
2019-02-12T12:28:09.034Z,900.00
2019-02-12T12:29:09.042Z,956.25
2019-02-12T12:30:09.016Z,911.25
2019-02-12T12:31:09.005Z,877.50
2019-02-12T12:32:08.993Z,967.50
2019-02-12T12:33:08.982Z,978.75
2019-02-12T12:34:08.970Z,990.00
2019-02-12T12:35:08.981Z,973.12
2019-02-12T12:36:08.954Z,1068.75
2019-02-12T12:37:08.942Z,1203.75
2019-02-12T12:38:08.928Z,1248.75
2019-02-12T12:39:08.916Z,1170.00
2019-02-12T12:40:08.906Z,1153.12
2019-02-12T12:41:09.003Z,1147.50
2019-02-12T12:42:08.888Z,1203.75
2019-02-12T12:43:08.875Z,1203.75
2019-02-12T12:44:08.892Z,1175.62
2019-02-12T12:45:08.855Z,1158.75
2019-02-12T12:46:08.846Z,1096.88
2019-02-12T12:47:08.851Z,1018.12
2019-02-12T12:48:08.823Z,1001.25
2019-02-12T12:49:08.815Z,939.38
2019-02-12T12:50:08.808Z,961.88
2019-02-12T12:51:08.792Z,945.00
2019-02-12T12:52:08.806Z,956.25